ASA518 KSEA-KLAX
Flight info
| Callsign | ASA518 |
|---|---|
| Flight time | N/A |
| Altitude | 35000 |
| Route | OZWLD1 OZWLD DCT KPOWW DCT SEA152033 DCT JINMO Q7 JAGWA DCT BURGL IRNMN2 |
| Aircraft | B739/M-SDE2E3FGHIRWXY/LB1 |
Departure
| Time | N/A |
|---|---|
| Airport | Seattle–Tacoma International Airport (KSEA) |
Arrival
| Time | 2026-04-25 21:01 |
|---|---|
| Airport | Los Angeles International Airport (KLAX) |
| Time | Latitude | Longitude | Altitude | Speed | Heading |
|---|---|---|---|---|---|
| 2026-04-25 20:37 | 34.90438 | -119.46632 | 28708 ft | 404 kts | 152° |
| 2026-04-25 20:37 | 34.88187 | -119.44602 | 28140 ft | 401 kts | 152° |
| 2026-04-25 20:37 | 34.85947 | -119.42605 | 27605 ft | 397 kts | 153° |
| 2026-04-25 20:37 | 34.83730 | -119.40635 | 27171 ft | 392 kts | 153° |
| 2026-04-25 20:38 | 34.81535 | -119.38682 | 26678 ft | 389 kts | 153° |
| 2026-04-25 20:38 | 34.79345 | -119.36797 | 26272 ft | 384 kts | 153° |
| 2026-04-25 20:38 | 34.77887 | -119.35489 | 25931 ft | 384 kts | 152° |
| 2026-04-25 20:38 | 34.75754 | -119.33551 | 25490 ft | 382 kts | 152° |
| 2026-04-25 20:39 | 34.73615 | -119.31626 | 25045 ft | 382 kts | 153° |
| 2026-04-25 20:39 | 34.71465 | -119.29740 | 24590 ft | 381 kts | 153° |
| 2026-04-25 20:39 | 34.69310 | -119.27866 | 24127 ft | 381 kts | 153° |
| 2026-04-25 20:39 | 34.67884 | -119.26624 | 23830 ft | 380 kts | 153° |
| 2026-04-25 20:40 | 34.65024 | -119.24131 | 23139 ft | 378 kts | 153° |
| 2026-04-25 20:40 | 34.62919 | -119.22297 | 22702 ft | 375 kts | 153° |
| 2026-04-25 20:40 | 34.60794 | -119.20473 | 22215 ft | 373 kts | 153° |
| 2026-04-25 20:40 | 34.58675 | -119.18663 | 21782 ft | 372 kts | 153° |
| 2026-04-25 20:41 | 34.56572 | -119.16850 | 21334 ft | 370 kts | 152° |
| 2026-04-25 20:41 | 34.54487 | -119.15020 | 20884 ft | 369 kts | 152° |
| 2026-04-25 20:41 | 34.52425 | -119.13187 | 20462 ft | 366 kts | 151° |
| 2026-04-25 20:41 | 34.50379 | -119.11367 | 20062 ft | 362 kts | 151° |
| 2026-04-25 20:42 | 34.48348 | -119.09560 | 19603 ft | 363 kts | 151° |
| 2026-04-25 20:42 | 34.46306 | -119.07758 | 19202 ft | 363 kts | 151° |
| 2026-04-25 20:42 | 34.44272 | -119.05960 | 18752 ft | 362 kts | 150° |
| 2026-04-25 20:42 | 34.42237 | -119.04183 | 18382 ft | 358 kts | 151° |
| 2026-04-25 20:43 | 34.40219 | -119.02437 | 17940 ft | 356 kts | 151° |
| 2026-04-25 20:43 | 34.38204 | -119.00696 | 17419 ft | 355 kts | 151° |
| 2026-04-25 20:43 | 34.36202 | -118.98966 | 16972 ft | 352 kts | 151° |
| 2026-04-25 20:43 | 34.34217 | -118.97250 | 16570 ft | 349 kts | 150° |
| 2026-04-25 20:44 | 34.32270 | -118.95511 | 16148 ft | 348 kts | 150° |
| 2026-04-25 20:44 | 34.30341 | -118.93749 | 15716 ft | 346 kts | 150° |
| 2026-04-25 20:44 | 34.28432 | -118.92006 | 15323 ft | 343 kts | 150° |
| 2026-04-25 20:44 | 34.26533 | -118.90277 | 14923 ft | 340 kts | 150° |
| 2026-04-25 20:45 | 34.24653 | -118.88566 | 14522 ft | 337 kts | 150° |
| 2026-04-25 20:45 | 34.22786 | -118.86852 | 14125 ft | 336 kts | 150° |
| 2026-04-25 20:45 | 34.20938 | -118.85150 | 13735 ft | 334 kts | 150° |
| 2026-04-25 20:45 | 34.19091 | -118.83453 | 13289 ft | 332 kts | 150° |
| 2026-04-25 20:46 | 34.17258 | -118.81769 | 12852 ft | 330 kts | 150° |
| 2026-04-25 20:46 | 34.15455 | -118.80065 | 12453 ft | 330 kts | 146° |
| 2026-04-25 20:46 | 34.13770 | -118.78240 | 12041 ft | 329 kts | 143° |
| 2026-04-25 20:46 | 34.12099 | -118.76355 | 11667 ft | 326 kts | 143° |
| 2026-04-25 20:47 | 34.10440 | -118.74507 | 11269 ft | 323 kts | 142° |
| 2026-04-25 20:47 | 34.08802 | -118.72707 | 10893 ft | 313 kts | 142° |
| 2026-04-25 20:47 | 34.07206 | -118.70969 | 10498 ft | 305 kts | 142° |
| 2026-04-25 20:47 | 34.05610 | -118.69349 | 10174 ft | 297 kts | 143° |
| 2026-04-25 20:48 | 34.04091 | -118.67694 | 9920 ft | 288 kts | 137° |
| 2026-04-25 20:48 | 34.03021 | -118.65668 | 9477 ft | 295 kts | 110° |
| 2026-04-25 20:48 | 34.02578 | -118.63253 | 9148 ft | 296 kts | 99° |
| 2026-04-25 20:48 | 34.02363 | -118.60773 | 8759 ft | 298 kts | 97° |
| 2026-04-25 20:49 | 34.02165 | -118.58290 | 8399 ft | 298 kts | 97° |
| 2026-04-25 20:49 | 34.01951 | -118.55803 | 8059 ft | 296 kts | 97° |
| 2026-04-25 20:49 | 34.01736 | -118.53373 | 7785 ft | 289 kts | 98° |
| 2026-04-25 20:49 | 34.01518 | -118.51002 | 7533 ft | 280 kts | 98° |
| 2026-04-25 20:50 | 34.01303 | -118.48707 | 7303 ft | 272 kts | 98° |
| 2026-04-25 20:50 | 34.01093 | -118.46472 | 7075 ft | 265 kts | 97° |
| 2026-04-25 20:50 | 34.01177 | -118.44297 | 7001 ft | 258 kts | 78° |
| 2026-04-25 20:50 | 34.01585 | -118.42228 | 6855 ft | 257 kts | 77° |
| 2026-04-25 20:51 | 34.01973 | -118.40093 | 6488 ft | 258 kts | 78° |
| 2026-04-25 20:51 | 34.02335 | -118.38038 | 6260 ft | 248 kts | 79° |
| 2026-04-25 20:51 | 34.02687 | -118.36014 | 6052 ft | 239 kts | 81° |
| 2026-04-25 20:51 | 34.02929 | -118.34094 | 6002 ft | 233 kts | 84° |
| 2026-04-25 20:52 | 34.03118 | -118.32168 | 6002 ft | 231 kts | 86° |
| 2026-04-25 20:52 | 34.03245 | -118.30864 | 6003 ft | 232 kts | 85° |
| 2026-04-25 20:52 | 34.03482 | -118.28300 | 5999 ft | 230 kts | 85° |
| 2026-04-25 20:52 | 34.03639 | -118.26422 | 5917 ft | 222 kts | 86° |
| 2026-04-25 20:53 | 34.03775 | -118.24547 | 5508 ft | 225 kts | 87° |
| 2026-04-25 20:53 | 34.03910 | -118.22678 | 5162 ft | 223 kts | 88° |
| 2026-04-25 20:53 | 34.04052 | -118.20833 | 4814 ft | 220 kts | 86° |
| 2026-04-25 20:53 | 34.04294 | -118.19022 | 4418 ft | 218 kts | 82° |
| 2026-04-25 20:54 | 34.04562 | -118.17221 | 4065 ft | 219 kts | 84° |
| 2026-04-25 20:54 | 34.04829 | -118.15411 | 3785 ft | 220 kts | 82° |
| 2026-04-25 20:54 | 34.05054 | -118.13605 | 3471 ft | 215 kts | 92° |
| 2026-04-25 20:54 | 34.04641 | -118.11965 | 3243 ft | 201 kts | 131° |
| 2026-04-25 20:55 | 34.03550 | -118.11025 | 2988 ft | 193 kts | 169° |
| 2026-04-25 20:55 | 34.02246 | -118.11119 | 2728 ft | 191 kts | 205° |
| 2026-04-25 20:55 | 34.01253 | -118.12167 | 2656 ft | 193 kts | 229° |
| 2026-04-25 20:55 | 34.00415 | -118.13475 | 2593 ft | 195 kts | 232° |
| 2026-04-25 20:56 | 33.99615 | -118.14752 | 2599 ft | 186 kts | 230° |
| 2026-04-25 20:56 | 33.98854 | -118.15997 | 2615 ft | 183 kts | 231° |
| 2026-04-25 20:56 | 33.98101 | -118.17225 | 2579 ft | 180 kts | 231° |
| 2026-04-25 20:56 | 33.97355 | -118.18444 | 2605 ft | 183 kts | 232° |
| 2026-04-25 20:57 | 33.96586 | -118.19664 | 2595 ft | 180 kts | 231° |
| 2026-04-25 20:57 | 33.95851 | -118.20848 | 2578 ft | 174 kts | 232° |
| 2026-04-25 20:57 | 33.95412 | -118.22186 | 2596 ft | 174 kts | 260° |
| 2026-04-25 20:57 | 33.95279 | -118.23637 | 2499 ft | 177 kts | 256° |
| 2026-04-25 20:58 | 33.95108 | -118.25104 | 2276 ft | 177 kts | 258° |
| 2026-04-25 20:58 | 33.94949 | -118.26584 | 2039 ft | 178 kts | 260° |
| 2026-04-25 20:58 | 33.94797 | -118.28025 | 1785 ft | 168 kts | 257° |
| 2026-04-25 20:58 | 33.94660 | -118.29339 | 1671 ft | 152 kts | 258° |
| 2026-04-25 20:59 | 33.94529 | -118.30573 | 1384 ft | 146 kts | 259° |
| 2026-04-25 20:59 | 33.94397 | -118.31778 | 1174 ft | 147 kts | 261° |
| 2026-04-25 20:59 | 33.94285 | -118.33008 | 1012 ft | 147 kts | 262° |
| 2026-04-25 20:59 | 33.94158 | -118.34217 | 797 ft | 144 kts | 260° |
| 2026-04-25 21:00 | 33.94035 | -118.35398 | 639 ft | 143 kts | 261° |
| 2026-04-25 21:00 | 33.93992 | -118.35801 | 584 ft | 144 kts | 261° |
| 2026-04-25 21:00 | 33.93671 | -118.38927 | 98 ft | 134 kts | 258° |
| 2026-04-25 21:01 | 33.93574 | -118.39863 | 95 ft | 84 kts | 263° |
| 2026-04-25 21:01 | 33.93531 | -118.40295 | 93 ft | 35 kts | 268° |
| 2026-04-25 21:01 | 33.93567 | -118.40564 | 96 ft | 23 kts | 292° |
| 2026-04-25 21:01 | 33.93592 | -118.40667 | 93 ft | 13 kts | 276° |
| 2026-04-25 21:02 | 33.93594 | -118.40782 | 93 ft | 14 kts | 272° |
| 2026-04-25 21:02 | 33.93629 | -118.40886 | 95 ft | 14 kts | 321° |
| 2026-04-25 21:02 | 33.93719 | -118.40906 | 95 ft | 13 kts | 353° |
| 2026-04-25 21:02 | 33.93784 | -118.40893 | 93 ft | 8 kts | 65° |
| 2026-04-25 21:03 | 33.93795 | -118.40817 | 93 ft | 13 kts | 82° |
| 2026-04-25 21:03 | 33.93808 | -118.40695 | 93 ft | 15 kts | 83° |
| 2026-04-25 21:03 | 33.93820 | -118.40571 | 93 ft | 14 kts | 83° |
| 2026-04-25 21:03 | 33.93832 | -118.40455 | 94 ft | 14 kts | 83° |
| 2026-04-25 21:04 | 33.93843 | -118.40342 | 95 ft | 13 kts | 82° |
| 2026-04-25 21:04 | 33.93855 | -118.40235 | 97 ft | 13 kts | 83° |
| 2026-04-25 21:04 | 33.93865 | -118.40135 | 98 ft | 11 kts | 83° |
| 2026-04-25 21:04 | 33.93883 | -118.40054 | 95 ft | 10 kts | 38° |
| 2026-04-25 21:05 | 33.93953 | -118.40055 | 95 ft | 11 kts | 352° |
| 2026-04-25 21:05 | 33.94025 | -118.40066 | 94 ft | 10 kts | 353° |
| 2026-04-25 21:05 | 33.94095 | -118.40077 | 92 ft | 10 kts | 353° |
| 2026-04-25 21:05 | 33.94163 | -118.40087 | 92 ft | 10 kts | 353° |
| 2026-04-25 21:06 | 33.94224 | -118.40095 | 92 ft | 6 kts | 353° |
| 2026-04-25 21:06 | 33.94240 | -118.40132 | 95 ft | 6 kts | 266° |
| 2026-04-25 21:06 | 33.94237 | -118.40160 | 92 ft | 1 kts | 262° |
| 2026-04-25 21:06 | 33.94237 | -118.40161 | 94 ft | 0 kts | 262° |